sensor_id;sensor_type;location;lat;lon;timestamp;temperature;humidity
20957;DHT22;10637;47.970;7.830;2023-04-24T00:02:14;12.40;99.90
20957;DHT22;10637;47.970;7.830;2023-04-24T00:07:16;12.40;99.90
20957;DHT22;10637;47.970;7.830;2023-04-24T00:12:18;12.40;99.90
20957;DHT22;10637;47.970;7.830;2023-04-24T00:17:20;12.30;99.90
20957;DHT22;10637;47.970;7.830;2023-04-24T00:22:22;12.30;99.90
20957;DHT22;10637;47.970;7.830;2023-04-24T00:27:24;12.30;99.90
20957;DHT22;10637;47.970;7.830;2023-04-24T00:32:25;12.30;99.90
20957;DHT22;10637;47.970;7.830;2023-04-24T00:37:27;12.30;99.90
20957;DHT22;10637;47.970;7.830;2023-04-24T00:42:30;12.20;99.90
20957;DHT22;10637;47.970;7.830;2023-04-24T00:47:33;12.20;99.90
20957;DHT22;10637;47.970;7.830;2023-04-24T00:52:35;12.10;99.90
20957;DHT22;10637;47.970;7.830;2023-04-24T00:57:38;12.10;99.90
20957;DHT22;10637;47.970;7.830;2023-04-24T01:02:41;12.00;99.90
20957;DHT22;10637;47.970;7.830;2023-04-24T01:07:47;12.10;99.90
20957;DHT22;10637;47.970;7.830;2023-04-24T01:12:51;12.00;99.90
20957;DHT22;10637;47.970;7.830;2023-04-24T01:17:53;12.10;99.90
20957;DHT22;10637;47.970;7.830;2023-04-24T01:22:55;12.00;99.90
20957;DHT22;10637;47.970;7.830;2023-04-24T01:27:58;12.00;99.90
20957;DHT22;10637;47.970;7.830;2023-04-24T01:33:00;12.10;99.90
20957;DHT22;10637;47.970;7.830;2023-04-24T01:38:02;12.00;99.90
20957;DHT22;10637;47.970;7.830;2023-04-24T01:43:04;12.00;99.90
20957;DHT22;10637;47.970;7.830;2023-04-24T01:48:06;12.00;99.90
20957;DHT22;10637;47.970;7.830;2023-04-24T01:53:08;12.00;99.90
20957;DHT22;10637;47.970;7.830;2023-04-24T01:58:10;11.90;99.90
20957;DHT22;10637;47.970;7.830;2023-04-24T02:03:12;11.90;99.90
20957;DHT22;10637;47.970;7.830;2023-04-24T02:08:14;11.90;99.90
20957;DHT22;10637;47.970;7.830;2023-04-24T02:13:16;11.80;99.90
20957;DHT22;10637;47.970;7.830;2023-04-24T02:18:17;11.80;99.90
20957;DHT22;10637;47.970;7.830;2023-04-24T02:23:19;11.80;99.90
20957;DHT22;10637;47.970;7.830;2023-04-24T02:28:21;11.60;99.90
20957;DHT22;10637;47.970;7.830;2023-04-24T02:33:23;11.60;99.90
20957;DHT22;10637;47.970;7.830;2023-04-24T02:38:24;11.60;99.90
20957;DHT22;10637;47.970;7.830;2023-04-24T02:43:26;11.50;99.90
20957;DHT22;10637;47.970;7.830;2023-04-24T02:48:28;11.50;99.90
20957;DHT22;10637;47.970;7.830;2023-04-24T02:53:30;11.50;99.90
20957;DHT22;10637;47.970;7.830;2023-04-24T02:58:32;11.50;99.90
20957;DHT22;10637;47.970;7.830;2023-04-24T03:03:34;11.60;99.90
20957;DHT22;10637;47.970;7.830;2023-04-24T03:08:36;11.60;99.90
20957;DHT22;10637;47.970;7.830;2023-04-24T03:13:38;11.60;99.90
20957;DHT22;10637;47.970;7.830;2023-04-24T03:18:39;11.60;99.90
20957;DHT22;10637;47.970;7.830;2023-04-24T03:23:41;11.60;99.90
20957;DHT22;10637;47.970;7.830;2023-04-24T03:28:43;11.60;99.90
20957;DHT22;10637;47.970;7.830;2023-04-24T03:33:45;11.50;99.90
20957;DHT22;10637;47.970;7.830;2023-04-24T03:38:46;11.40;99.90
20957;DHT22;10637;47.970;7.830;2023-04-24T03:43:48;11.30;99.90
20957;DHT22;10637;47.970;7.830;2023-04-24T03:48:50;11.30;99.90
20957;DHT22;10637;47.970;7.830;2023-04-24T03:53:52;11.30;99.90
20957;DHT22;10637;47.970;7.830;2023-04-24T03:58:53;11.20;99.90
20957;DHT22;10637;47.970;7.830;2023-04-24T04:03:55;11.30;99.90
20957;DHT22;10637;47.970;7.830;2023-04-24T04:08:58;11.30;99.90
20957;DHT22;10637;47.970;7.830;2023-04-24T04:14:00;11.20;99.90
20957;DHT22;10637;47.970;7.830;2023-04-24T04:19:02;11.20;99.90
20957;DHT22;10637;47.970;7.830;2023-04-24T04:24:04;11.10;99.90
20957;DHT22;10637;47.970;7.830;2023-04-24T04:29:07;11.10;99.90
20957;DHT22;10637;47.970;7.830;2023-04-24T04:34:08;11.10;99.90
20957;DHT22;10637;47.970;7.830;2023-04-24T04:39:10;11.20;99.90
20957;DHT22;10637;47.970;7.830;2023-04-24T04:44:12;11.10;99.90
20957;DHT22;10637;47.970;7.830;2023-04-24T04:49:14;11.10;99.90
20957;DHT22;10637;47.970;7.830;2023-04-24T04:54:18;11.00;99.90
20957;DHT22;10637;47.970;7.830;2023-04-24T04:59:19;11.00;99.90
20957;DHT22;10637;47.970;7.830;2023-04-24T05:04:21;11.00;99.90
20957;DHT22;10637;47.970;7.830;2023-04-24T05:09:23;11.10;99.90
20957;DHT22;10637;47.970;7.830;2023-04-24T05:14:28;11.10;99.90
20957;DHT22;10637;47.970;7.830;2023-04-24T05:19:30;11.10;99.90
20957;DHT22;10637;47.970;7.830;2023-04-24T05:24:34;11.10;99.90
20957;DHT22;10637;47.970;7.830;2023-04-24T05:29:36;11.00;99.90
20957;DHT22;10637;47.970;7.830;2023-04-24T05:34:37;11.00;99.90
20957;DHT22;10637;47.970;7.830;2023-04-24T05:39:39;10.90;99.90
20957;DHT22;10637;47.970;7.830;2023-04-24T05:44:43;10.90;99.90
20957;DHT22;10637;47.970;7.830;2023-04-24T05:49:45;10.90;99.90
20957;DHT22;10637;47.970;7.830;2023-04-24T05:54:46;10.80;99.90
20957;DHT22;10637;47.970;7.830;2023-04-24T05:59:48;10.80;99.90
20957;DHT22;10637;47.970;7.830;2023-04-24T06:04:50;10.80;99.90
20957;DHT22;10637;47.970;7.830;2023-04-24T06:09:52;10.80;99.90
20957;DHT22;10637;47.970;7.830;2023-04-24T06:14:54;10.90;99.90
20957;DHT22;10637;47.970;7.830;2023-04-24T06:19:57;11.00;99.90
20957;DHT22;10637;47.970;7.830;2023-04-24T06:24:59;10.90;99.90
20957;DHT22;10637;47.970;7.830;2023-04-24T06:30:02;10.80;99.90
20957;DHT22;10637;47.970;7.830;2023-04-24T06:35:04;10.80;99.90
20957;DHT22;10637;47.970;7.830;2023-04-24T06:40:09;10.70;99.90
20957;DHT22;10637;47.970;7.830;2023-04-24T06:45:11;10.70;99.90
20957;DHT22;10637;47.970;7.830;2023-04-24T06:50:13;10.60;99.90
20957;DHT22;10637;47.970;7.830;2023-04-24T06:55:14;10.60;99.90
20957;DHT22;10637;47.970;7.830;2023-04-24T07:00:18;10.60;99.90
20957;DHT22;10637;47.970;7.830;2023-04-24T07:05:20;10.60;99.90
20957;DHT22;10637;47.970;7.830;2023-04-24T07:10:21;10.70;99.90
20957;DHT22;10637;47.970;7.830;2023-04-24T07:15:23;10.80;99.90
20957;DHT22;10637;47.970;7.830;2023-04-24T07:20:25;11.00;99.90
20957;DHT22;10637;47.970;7.830;2023-04-24T07:25:27;11.00;99.90
20957;DHT22;10637;47.970;7.830;2023-04-24T07:30:29;11.20;99.90
20957;DHT22;10637;47.970;7.830;2023-04-24T07:35:33;11.30;99.90
20957;DHT22;10637;47.970;7.830;2023-04-24T07:40:35;11.60;99.90
20957;DHT22;10637;47.970;7.830;2023-04-24T07:45:37;11.90;99.90
20957;DHT22;10637;47.970;7.830;2023-04-24T07:50:39;12.20;99.90
20957;DHT22;10637;47.970;7.830;2023-04-24T07:55:40;12.20;99.90
20957;DHT22;10637;47.970;7.830;2023-04-24T08:00:42;12.40;99.90
20957;DHT22;10637;47.970;7.830;2023-04-24T08:05:44;12.40;99.90
20957;DHT22;10637;47.970;7.830;2023-04-24T08:10:46;12.20;99.90
20957;DHT22;10637;47.970;7.830;2023-04-24T08:15:48;11.80;99.90
20957;DHT22;10637;47.970;7.830;2023-04-24T08:20:49;11.70;99.90
20957;DHT22;10637;47.970;7.830;2023-04-24T08:25:51;11.40;99.90
20957;DHT22;10637;47.970;7.830;2023-04-24T08:30:53;11.30;99.90
20957;DHT22;10637;47.970;7.830;2023-04-24T08:35:56;11.40;99.90
20957;DHT22;10637;47.970;7.830;2023-04-24T08:40:59;11.50;99.90
20957;DHT22;10637;47.970;7.830;2023-04-24T08:46:01;11.70;99.90
20957;DHT22;10637;47.970;7.830;2023-04-24T08:51:08;11.90;99.90
20957;DHT22;10637;47.970;7.830;2023-04-24T08:56:11;12.30;99.90
20957;DHT22;10637;47.970;7.830;2023-04-24T09:01:14;12.40;99.90
20957;DHT22;10637;47.970;7.830;2023-04-24T09:06:17;12.60;99.90
20957;DHT22;10637;47.970;7.830;2023-04-24T09:11:20;12.40;99.90
20957;DHT22;10637;47.970;7.830;2023-04-24T09:16:25;12.80;99.90
20957;DHT22;10637;47.970;7.830;2023-04-24T09:21:35;12.70;99.90
20957;DHT22;10637;47.970;7.830;2023-04-24T09:26:37;12.80;99.90
20957;DHT22;10637;47.970;7.830;2023-04-24T09:31:38;13.10;99.90
20957;DHT22;10637;47.970;7.830;2023-04-24T09:36:42;13.30;99.90
20957;DHT22;10637;47.970;7.830;2023-04-24T09:41:46;12.80;99.90
20957;DHT22;10637;47.970;7.830;2023-04-24T09:46:57;12.60;99.90
20957;DHT22;10637;47.970;7.830;2023-04-24T09:52:09;12.50;99.90
20957;DHT22;10637;47.970;7.830;2023-04-24T09:57:11;12.50;99.90
20957;DHT22;10637;47.970;7.830;2023-04-24T10:02:19;12.70;99.90
20957;DHT22;10637;47.970;7.830;2023-04-24T10:07:22;13.10;99.90
20957;DHT22;10637;47.970;7.830;2023-04-24T10:12:27;14.00;98.10
20957;DHT22;10637;47.970;7.830;2023-04-24T10:17:30;14.90;98.10
20957;DHT22;10637;47.970;7.830;2023-04-24T10:22:33;15.00;95.10
20957;DHT22;10637;47.970;7.830;2023-04-24T10:27:36;14.60;95.30
20957;DHT22;10637;47.970;7.830;2023-04-24T10:32:38;14.70;94.90
20957;DHT22;10637;47.970;7.830;2023-04-24T10:37:45;15.70;93.70
20957;DHT22;10637;47.970;7.830;2023-04-24T10:42:51;15.00;94.40
20957;DHT22;10637;47.970;7.830;2023-04-24T10:48:18;15.40;95.10
20957;DHT22;10637;47.970;7.830;2023-04-24T10:53:26;15.20;95.30
20957;DHT22;10637;47.970;7.830;2023-04-24T10:58:49;14.40;95.30
20957;DHT22;10637;47.970;7.830;2023-04-24T11:03:55;13.80;96.50
20957;DHT22;10637;47.970;7.830;2023-04-24T11:09:08;13.80;96.50
20957;DHT22;10637;47.970;7.830;2023-04-24T11:14:14;13.70;96.40
20957;DHT22;10637;47.970;7.830;2023-04-24T11:24:37;13.20;98.30
20957;DHT22;10637;47.970;7.830;2023-04-24T11:35:01;13.30;98.60
20957;DHT22;10637;47.970;7.830;2023-04-24T11:40:05;13.30;97.80
20957;DHT22;10637;47.970;7.830;2023-04-24T11:45:12;13.00;99.40
20957;DHT22;10637;47.970;7.830;2023-04-24T11:50:16;13.20;98.80
20957;DHT22;10637;47.970;7.830;2023-04-24T12:00:31;13.40;98.80
20957;DHT22;10637;47.970;7.830;2023-04-24T12:05:33;13.10;99.90
20957;DHT22;10637;47.970;7.830;2023-04-24T12:10:36;13.20;98.60
20957;DHT22;10637;47.970;7.830;2023-04-24T12:15:40;13.40;99.30
20957;DHT22;10637;47.970;7.830;2023-04-24T12:20:42;13.50;99.00
20957;DHT22;10637;47.970;7.830;2023-04-24T12:25:44;13.80;98.50
20957;DHT22;10637;47.970;7.830;2023-04-24T12:30:49;14.40;99.10
20957;DHT22;10637;47.970;7.830;2023-04-24T12:35:52;15.10;98.30
20957;DHT22;10637;47.970;7.830;2023-04-24T12:41:08;15.00;97.70
20957;DHT22;10637;47.970;7.830;2023-04-24T12:46:10;14.50;98.40
20957;DHT22;10637;47.970;7.830;2023-04-24T12:51:12;14.20;98.00
20957;DHT22;10637;47.970;7.830;2023-04-24T12:56:14;13.90;98.90
20957;DHT22;10637;47.970;7.830;2023-04-24T13:01:16;13.90;99.20
20957;DHT22;10637;47.970;7.830;2023-04-24T13:06:17;13.80;99.10
20957;DHT22;10637;47.970;7.830;2023-04-24T13:11:20;13.90;99.20
20957;DHT22;10637;47.970;7.830;2023-04-24T13:16:23;14.10;98.40
20957;DHT22;10637;47.970;7.830;2023-04-24T13:21:25;14.50;98.30
20957;DHT22;10637;47.970;7.830;2023-04-24T13:26:27;14.30;98.00
20957;DHT22;10637;47.970;7.830;2023-04-24T13:31:29;14.30;97.80
20957;DHT22;10637;47.970;7.830;2023-04-24T13:36:31;14.30;98.50
20957;DHT22;10637;47.970;7.830;2023-04-24T13:41:33;14.50;98.50
20957;DHT22;10637;47.970;7.830;2023-04-24T13:46:35;14.60;99.10
20957;DHT22;10637;47.970;7.830;2023-04-24T13:51:38;14.60;98.60
20957;DHT22;10637;47.970;7.830;2023-04-24T13:56:40;14.90;99.30
20957;DHT22;10637;47.970;7.830;2023-04-24T14:01:42;14.90;98.80
20957;DHT22;10637;47.970;7.830;2023-04-24T14:06:44;14.90;99.30
20957;DHT22;10637;47.970;7.830;2023-04-24T14:11:46;15.20;98.20
20957;DHT22;10637;47.970;7.830;2023-04-24T14:16:47;15.10;98.30
20957;DHT22;10637;47.970;7.830;2023-04-24T14:21:49;14.50;99.60
20957;DHT22;10637;47.970;7.830;2023-04-24T14:26:51;14.10;99.90
20957;DHT22;10637;47.970;7.830;2023-04-24T14:31:53;13.20;99.90
20957;DHT22;10637;47.970;7.830;2023-04-24T14:36:55;13.10;99.90
20957;DHT22;10637;47.970;7.830;2023-04-24T14:41:57;13.00;99.90
20957;DHT22;10637;47.970;7.830;2023-04-24T14:46:59;13.00;99.90
20957;DHT22;10637;47.970;7.830;2023-04-24T14:52:01;12.90;99.90
20957;DHT22;10637;47.970;7.830;2023-04-24T14:57:04;12.80;99.60
20957;DHT22;10637;47.970;7.830;2023-04-24T15:02:06;12.80;99.90
20957;DHT22;10637;47.970;7.830;2023-04-24T15:07:17;12.90;99.90
20957;DHT22;10637;47.970;7.830;2023-04-24T15:12:19;12.90;99.90
20957;DHT22;10637;47.970;7.830;2023-04-24T15:17:21;13.00;99.90
20957;DHT22;10637;47.970;7.830;2023-04-24T15:22:23;13.20;99.90
20957;DHT22;10637;47.970;7.830;2023-04-24T15:27:24;13.10;99.90
20957;DHT22;10637;47.970;7.830;2023-04-24T15:32:26;13.30;99.90
20957;DHT22;10637;47.970;7.830;2023-04-24T15:37:28;13.50;99.90
20957;DHT22;10637;47.970;7.830;2023-04-24T15:42:30;13.20;99.90
20957;DHT22;10637;47.970;7.830;2023-04-24T15:47:32;13.20;99.90
20957;DHT22;10637;47.970;7.830;2023-04-24T15:52:34;13.30;99.90
20957;DHT22;10637;47.970;7.830;2023-04-24T15:57:36;13.10;99.90
20957;DHT22;10637;47.970;7.830;2023-04-24T16:02:38;13.30;99.90
20957;DHT22;10637;47.970;7.830;2023-04-24T16:07:41;13.20;99.90
20957;DHT22;10637;47.970;7.830;2023-04-24T16:12:42;13.20;99.90
20957;DHT22;10637;47.970;7.830;2023-04-24T16:17:44;13.10;99.90
20957;DHT22;10637;47.970;7.830;2023-04-24T16:22:46;13.00;99.90
20957;DHT22;10637;47.970;7.830;2023-04-24T16:27:49;12.90;99.90
20957;DHT22;10637;47.970;7.830;2023-04-24T16:32:51;12.80;99.90
20957;DHT22;10637;47.970;7.830;2023-04-24T16:37:53;12.90;99.90
20957;DHT22;10637;47.970;7.830;2023-04-24T16:42:55;13.00;99.90
20957;DHT22;10637;47.970;7.830;2023-04-24T16:47:57;13.20;99.90
20957;DHT22;10637;47.970;7.830;2023-04-24T16:52:59;13.10;99.90
20957;DHT22;10637;47.970;7.830;2023-04-24T16:58:01;13.10;99.90
20957;DHT22;10637;47.970;7.830;2023-04-24T17:03:02;13.00;99.90
20957;DHT22;10637;47.970;7.830;2023-04-24T17:08:04;12.80;99.90
20957;DHT22;10637;47.970;7.830;2023-04-24T17:13:07;12.80;99.90
20957;DHT22;10637;47.970;7.830;2023-04-24T17:18:09;12.80;99.90
20957;DHT22;10637;47.970;7.830;2023-04-24T17:23:11;12.80;99.90
20957;DHT22;10637;47.970;7.830;2023-04-24T17:28:29;12.60;99.90
20957;DHT22;10637;47.970;7.830;2023-04-24T17:33:31;12.50;99.90
20957;DHT22;10637;47.970;7.830;2023-04-24T17:38:33;12.60;99.90
20957;DHT22;10637;47.970;7.830;2023-04-24T17:43:35;12.60;99.90
20957;DHT22;10637;47.970;7.830;2023-04-24T17:48:36;12.50;99.90
20957;DHT22;10637;47.970;7.830;2023-04-24T17:53:38;12.50;99.90
20957;DHT22;10637;47.970;7.830;2023-04-24T17:58:41;12.50;99.90
20957;DHT22;10637;47.970;7.830;2023-04-24T18:03:43;12.40;99.90
20957;DHT22;10637;47.970;7.830;2023-04-24T18:08:45;12.40;99.90
20957;DHT22;10637;47.970;7.830;2023-04-24T18:13:47;12.30;99.90
20957;DHT22;10637;47.970;7.830;2023-04-24T18:18:50;12.40;99.90
20957;DHT22;10637;47.970;7.830;2023-04-24T18:23:51;12.20;99.90
20957;DHT22;10637;47.970;7.830;2023-04-24T18:28:54;12.30;99.90
20957;DHT22;10637;47.970;7.830;2023-04-24T18:33:56;12.20;99.90
20957;DHT22;10637;47.970;7.830;2023-04-24T18:38:59;12.10;99.90
20957;DHT22;10637;47.970;7.830;2023-04-24T18:44:00;12.00;99.90
20957;DHT22;10637;47.970;7.830;2023-04-24T18:49:03;12.00;99.90
20957;DHT22;10637;47.970;7.830;2023-04-24T18:54:05;12.00;99.90
20957;DHT22;10637;47.970;7.830;2023-04-24T18:59:07;12.00;99.90
20957;DHT22;10637;47.970;7.830;2023-04-24T19:04:09;12.00;99.90
20957;DHT22;10637;47.970;7.830;2023-04-24T19:09:11;11.90;99.90
20957;DHT22;10637;47.970;7.830;2023-04-24T19:14:13;11.90;99.90
20957;DHT22;10637;47.970;7.830;2023-04-24T19:19:16;11.70;99.90
20957;DHT22;10637;47.970;7.830;2023-04-24T19:24:18;11.80;99.90
20957;DHT22;10637;47.970;7.830;2023-04-24T19:29:21;11.70;99.90
20957;DHT22;10637;47.970;7.830;2023-04-24T19:34:23;11.70;99.90
20957;DHT22;10637;47.970;7.830;2023-04-24T19:39:25;11.80;99.90
20957;DHT22;10637;47.970;7.830;2023-04-24T19:44:27;11.70;99.90
20957;DHT22;10637;47.970;7.830;2023-04-24T19:49:29;11.70;99.90
20957;DHT22;10637;47.970;7.830;2023-04-24T19:54:31;11.70;99.90
20957;DHT22;10637;47.970;7.830;2023-04-24T19:59:33;11.60;99.90
20957;DHT22;10637;47.970;7.830;2023-04-24T20:04:34;11.60;99.90
20957;DHT22;10637;47.970;7.830;2023-04-24T20:09:37;11.60;99.90
20957;DHT22;10637;47.970;7.830;2023-04-24T20:14:38;11.60;99.90
20957;DHT22;10637;47.970;7.830;2023-04-24T20:19:41;11.50;99.90
20957;DHT22;10637;47.970;7.830;2023-04-24T20:24:43;11.50;99.90
20957;DHT22;10637;47.970;7.830;2023-04-24T20:29:46;11.40;99.90
20957;DHT22;10637;47.970;7.830;2023-04-24T20:34:48;11.40;99.90
20957;DHT22;10637;47.970;7.830;2023-04-24T20:39:49;11.40;99.90
20957;DHT22;10637;47.970;7.830;2023-04-24T20:44:52;11.40;99.90
20957;DHT22;10637;47.970;7.830;2023-04-24T20:49:54;11.40;99.90
20957;DHT22;10637;47.970;7.830;2023-04-24T20:54:55;11.40;99.90
20957;DHT22;10637;47.970;7.830;2023-04-24T20:59:57;11.40;99.90
20957;DHT22;10637;47.970;7.830;2023-04-24T21:04:59;11.40;99.90
20957;DHT22;10637;47.970;7.830;2023-04-24T21:10:01;11.40;99.90
20957;DHT22;10637;47.970;7.830;2023-04-24T21:15:03;11.30;99.90
20957;DHT22;10637;47.970;7.830;2023-04-24T21:20:06;11.30;99.90
20957;DHT22;10637;47.970;7.830;2023-04-24T21:25:08;11.30;99.90
20957;DHT22;10637;47.970;7.830;2023-04-24T21:30:11;11.30;99.90
20957;DHT22;10637;47.970;7.830;2023-04-24T21:35:13;11.20;99.90
20957;DHT22;10637;47.970;7.830;2023-04-24T21:40:14;11.30;99.90
20957;DHT22;10637;47.970;7.830;2023-04-24T21:45:16;11.20;99.90
20957;DHT22;10637;47.970;7.830;2023-04-24T21:50:18;11.20;99.90
20957;DHT22;10637;47.970;7.830;2023-04-24T21:55:20;11.20;99.90
20957;DHT22;10637;47.970;7.830;2023-04-24T22:00:22;11.20;99.90
20957;DHT22;10637;47.970;7.830;2023-04-24T22:05:25;11.10;99.90
20957;DHT22;10637;47.970;7.830;2023-04-24T22:10:27;11.10;99.90
20957;DHT22;10637;47.970;7.830;2023-04-24T22:15:29;11.00;99.90
20957;DHT22;10637;47.970;7.830;2023-04-24T22:20:31;10.70;99.90
20957;DHT22;10637;47.970;7.830;2023-04-24T22:25:34;10.70;99.90
20957;DHT22;10637;47.970;7.830;2023-04-24T22:30:35;10.60;99.90
20957;DHT22;10637;47.970;7.830;2023-04-24T22:35:38;10.50;99.90
20957;DHT22;10637;47.970;7.830;2023-04-24T22:40:40;10.50;99.90
20957;DHT22;10637;47.970;7.830;2023-04-24T22:45:42;10.50;99.90
20957;DHT22;10637;47.970;7.830;2023-04-24T22:50:45;10.60;99.90
20957;DHT22;10637;47.970;7.830;2023-04-24T22:55:47;10.40;99.90
20957;DHT22;10637;47.970;7.830;2023-04-24T23:00:49;10.40;99.90
20957;DHT22;10637;47.970;7.830;2023-04-24T23:05:51;10.40;99.90
20957;DHT22;10637;47.970;7.830;2023-04-24T23:10:53;10.40;99.90
20957;DHT22;10637;47.970;7.830;2023-04-24T23:15:55;10.50;99.90
20957;DHT22;10637;47.970;7.830;2023-04-24T23:20:57;10.50;99.90
20957;DHT22;10637;47.970;7.830;2023-04-24T23:25:59;10.40;99.90
20957;DHT22;10637;47.970;7.830;2023-04-24T23:31:01;10.40;99.90
20957;DHT22;10637;47.970;7.830;2023-04-24T23:36:03;10.40;99.90
20957;DHT22;10637;47.970;7.830;2023-04-24T23:41:05;10.40;99.90
20957;DHT22;10637;47.970;7.830;2023-04-24T23:46:07;10.30;99.90
20957;DHT22;10637;47.970;7.830;2023-04-24T23:51:09;10.30;99.90
20957;DHT22;10637;47.970;7.830;2023-04-24T23:56:11;10.40;99.90
